Time;durP1;ratioP1;P1;durP2;ratioP2;P2;SDS_P1;SDS_P2;PMS_P1;PMS_P2;Temp;Humidity;BMP_temperature;BMP_pressure;BME280_temperature;BME280_humidity;BME280_pressure;Samples;Min_cycle;Max_cycle;Signal;HPM_P1;HPM_P2
2021/11/12 00:13:06;;;;;;;30.45;16.00;;;;;;;4.58;93.16;99965.28;5121283;27;20205;-77
2021/11/12 00:15:36;;;;;;;29.98;17.23;;;;;;;4.47;93.33;99967.38;5139999;27;20183;-77
2021/11/12 00:18:04;;;;;;;27.60;16.90;;;;;;;4.50;93.92;99956.66;5134571;27;20579;-78
2021/11/12 00:20:31;;;;;;;33.25;17.60;;;;;;;4.34;94.31;99960.63;5124128;27;20194;-78
2021/11/12 00:22:57;;;;;;;30.02;18.00;;;;;;;4.49;94.86;99954.88;5126685;27;20290;-78
2021/11/12 00:25:24;;;;;;;34.13;18.05;;;;;;;4.51;94.91;99952.19;5116052;27;20199;-77
2021/11/12 00:27:51;;;;;;;26.55;17.05;;;;;;;4.63;94.39;99953.63;5123493;27;20242;-77
2021/11/12 00:30:31;;;;;;;26.98;17.75;;;;;;;4.56;93.65;99945.78;5125265;27;20282;-76
2021/11/12 00:33:06;;;;;;;28.85;17.58;;;;;;;4.58;93.83;99945.75;5128831;27;20187;-76
2021/11/12 00:35:38;;;;;;;26.35;16.55;;;;;;;4.66;93.51;99941.09;5119217;27;20183;-78
2021/11/12 00:38:08;;;;;;;30.13;18.42;;;;;;;4.64;92.30;99937.59;5119068;27;20191;-77
2021/11/12 00:40:42;;;;;;;29.67;16.42;;;;;;;4.70;92.54;99942.72;5130396;27;20196;-78
2021/11/12 00:43:27;;;;;;;25.02;15.00;;;;;;;4.48;93.68;99937.16;5122849;27;20183;-77
2021/11/12 00:46:08;;;;;;;30.65;17.38;;;;;;;4.65;94.19;99939.31;5123836;27;20196;-77
2021/11/12 00:48:37;;;;;;;29.40;16.95;;;;;;;4.39;94.74;99935.59;5117669;27;20187;-78
2021/11/12 00:51:17;;;;;;;30.05;17.45;;;;;;;4.55;94.81;99928.06;5122397;27;20188;-77
2021/11/12 00:54:06;;;;;;;39.22;16.13;;;;;;;4.58;94.06;99932.41;5125850;27;20191;-77
2021/11/12 00:56:33;;;;;;;32.80;16.83;;;;;;;4.52;94.43;99929.91;5114757;27;20670;-77
2021/11/12 00:59:02;;;;;;;27.23;18.10;;;;;;;4.59;95.41;99924.38;5122415;27;20702;-77
2021/11/12 01:01:33;;;;;;;26.58;16.17;;;;;;;4.66;94.26;99926.84;5130409;27;20618;-77
2021/11/12 01:04:01;;;;;;;29.88;18.25;;;;;;;4.61;95.02;99927.00;5125912;27;20194;-77
2021/11/12 01:06:28;;;;;;;30.85;17.55;;;;;;;4.79;95.12;99926.50;5125487;27;20554;-78
2021/11/12 01:08:54;;;;;;;27.05;16.73;;;;;;;4.65;95.47;99917.13;5125928;27;20187;-77
2021/11/12 01:11:24;;;;;;;31.48;17.42;;;;;;;4.45;96.09;99918.56;5122714;27;20197;-77
2021/11/12 01:13:52;;;;;;;32.58;17.17;;;;;;;4.31;97.44;99926.94;5125032;27;20189;-77
2021/11/12 01:16:19;;;;;;;27.38;15.95;;;;;;;4.38;98.78;99930.31;5125100;27;20183;-77
2021/11/12 01:18:48;;;;;;;30.45;18.10;;;;;;;4.51;97.37;99917.53;5125344;27;20195;-77
2021/11/12 01:21:17;;;;;;;28.20;17.02;;;;;;;4.58;97.15;99927.09;5124585;27;20190;-77
2021/11/12 01:23:47;;;;;;;37.33;18.80;;;;;;;4.62;95.08;99923.44;5121707;27;20196;-78
2021/11/12 01:26:14;;;;;;;29.70;16.38;;;;;;;4.56;95.39;99928.91;5128232;27;20302;-78
2021/11/12 01:28:41;;;;;;;28.75;16.88;;;;;;;4.56;96.74;99920.91;5121720;27;20285;-77
2021/11/12 01:31:08;;;;;;;26.52;16.38;;;;;;;4.38;98.34;99920.50;5122421;27;20230;-77
2021/11/12 01:33:35;;;;;;;29.35;16.50;;;;;;;4.43;98.47;99931.03;5124892;27;20210;-76
2021/11/12 01:36:12;;;;;;;31.23;16.80;;;;;;;4.62;97.17;99927.88;5123179;27;20191;-77
2021/11/12 01:38:39;;;;;;;27.02;17.02;;;;;;;4.62;96.78;99923.44;5121404;27;20191;-77
2021/11/12 01:41:05;;;;;;;27.20;16.98;;;;;;;4.56;96.79;99924.47;5121538;27;20194;-78
2021/11/12 01:43:38;;;;;;;31.27;17.40;;;;;;;4.72;94.99;99929.34;5118681;27;20270;-78
2021/11/12 01:46:19;;;;;;;35.45;16.52;;;;;;;4.58;94.96;99929.75;5123024;27;20240;-77
2021/11/12 01:49:05;;;;;;;27.92;16.13;;;;;;;4.56;97.06;99921.78;5123358;27;20183;-78
2021/11/12 01:51:41;;;;;;;32.67;17.08;;;;;;;4.65;97.06;99925.13;5113522;27;20279;-78
2021/11/12 01:57:11;;;;;;;26.67;16.02;;;;;;;4.68;96.22;99925.91;5128006;27;20183;-79
2021/11/12 01:59:38;;;;;;;26.02;16.92;;;;;;;4.78;94.17;99924.72;5121348;27;20622;-78
2021/11/12 02:02:08;;;;;;;27.23;15.23;;;;;;;4.66;94.46;99927.75;5121181;27;20194;-78
2021/11/12 02:04:36;;;;;;;29.38;17.00;;;;;;;4.68;93.85;99925.91;5119968;27;20191;-78
2021/11/12 02:07:05;;;;;;;31.27;15.70;;;;;;;4.62;93.34;99926.09;5121480;27;21595;-78
2021/11/12 02:09:32;;;;;;;26.13;14.00;;;;;;;4.60;93.70;99925.25;5121127;27;20180;-78
2021/11/12 02:12:03;;;;;;;41.20;15.90;;;;;;;4.66;92.33;99926.84;5126608;27;20282;-78
2021/11/12 02:14:31;;;;;;;25.73;15.18;;;;;;;4.48;94.69;99936.28;5121004;27;20180;-77
2021/11/12 02:17:03;;;;;;;27.20;15.93;;;;;;;4.56;95.16;99929.78;5122499;27;20184;-78
2021/11/12 02:19:30;;;;;;;27.75;16.25;;;;;;;4.51;95.08;99922.84;5126230;27;20613;-76
2021/11/12 02:22:06;;;;;;;27.92;16.40;;;;;;;4.61;93.88;99921.66;5122448;27;20188;-77
2021/11/12 02:24:37;;;;;;;26.95;15.10;;;;;;;4.57;93.74;99915.56;5124272;27;20620;-76
2021/11/12 02:27:05;;;;;;;28.45;16.35;;;;;;;4.66;93.50;99918.84;5115887;27;20212;-77
2021/11/12 02:29:33;;;;;;;26.40;15.32;;;;;;;4.64;92.71;99918.91;5125160;27;20270;-79
2021/11/12 02:31:59;;;;;;;27.20;14.50;;;;;;;4.53;93.90;99910.34;5127019;27;20199;-78
2021/11/12 02:34:26;;;;;;;27.75;16.40;;;;;;;4.54;93.36;99912.09;5120758;27;20187;-78
2021/11/12 02:36:54;;;;;;;25.73;15.15;;;;;;;4.45;93.23;99904.34;5121860;27;20214;-78
2021/11/12 02:39:23;;;;;;;30.10;16.70;;;;;;;4.35;94.41;99901.06;5123681;27;20190;-78
2021/11/12 02:41:50;;;;;;;25.30;15.40;;;;;;;4.47;94.19;99902.50;5112328;28;20184;-78
2021/11/12 02:44:19;;;;;;;32.58;15.82;;;;;;;4.39;94.86;99906.28;5121095;27;20597;-76
2021/11/12 02:46:45;;;;;;;35.97;15.90;;;;;;;4.45;94.01;99907.00;5120548;27;20215;-77
2021/11/12 02:49:12;;;;;;;24.45;15.52;;;;;;;4.41;93.16;99902.69;5114029;27;20271;-77
2021/11/12 02:51:39;;;;;;;27.83;15.30;;;;;;;4.30;94.21;99892.34;5120200;27;20194;-77
2021/11/12 02:54:12;;;;;;;27.52;14.95;;;;;;;4.25;95.30;99897.81;5120423;27;20354;-78
2021/11/12 02:56:40;;;;;;;25.83;14.93;;;;;;;4.39;95.04;99900.94;5121078;27;20195;-78
2021/11/12 02:59:10;;;;;;;23.92;15.40;;;;;;;4.42;94.33;99894.66;5118735;27;20195;-78
2021/11/12 03:01:44;;;;;;;28.17;15.00;;;;;;;4.53;93.65;99907.69;5129525;27;20191;-78
2021/11/12 03:04:11;;;;;;;28.17;16.52;;;;;;;4.39;93.87;99892.09;5125887;27;20188;-77
2021/11/12 03:06:39;;;;;;;26.42;13.77;;;;;;;4.32;94.45;99894.03;5121130;28;20637;-77
2021/11/12 03:09:08;;;;;;;25.70;14.27;;;;;;;4.42;94.33;99886.66;5123625;28;20187;-78
2021/11/12 03:11:35;;;;;;;22.90;13.88;;;;;;;4.59;91.77;99888.84;5114688;28;20278;-77
2021/11/12 03:14:04;;;;;;;22.60;14.25;;;;;;;4.45;93.17;99885.69;5120185;28;20192;-78
2021/11/12 03:16:31;;;;;;;26.95;14.70;;;;;;;4.38;93.96;99885.84;5120278;28;20308;-78
2021/11/12 03:19:00;;;;;;;26.33;15.35;;;;;;;4.39;93.46;99882.28;5119759;28;20190;-78
2021/11/12 03:21:27;;;;;;;25.25;14.80;;;;;;;4.31;94.08;99886.94;5120619;28;20196;-78
2021/11/12 03:23:58;;;;;;;22.60;13.48;;;;;;;4.36;94.73;99878.81;5123127;28;20282;-78
2021/11/12 03:26:39;;;;;;;22.80;14.23;;;;;;;4.18;94.46;99885.53;5116348;28;20622;-78
2021/11/12 04:02:15;;;;;;;22.77;13.63;;;;;;;3.58;96.57;99857.81;5094836;28;20263;-78
2021/11/12 04:04:53;;;;;;;28.25;13.45;;;;;;;3.61;96.39;99867.50;5094916;28;20236;-78
2021/11/12 04:07:33;;;;;;;22.65;14.10;;;;;;;3.51;96.56;99867.75;5094254;28;20240;-78
2021/11/12 04:18:31;;;;;;;18.30;13.63;;;;;;;3.01;98.52;99845.00;5094688;28;20179;-78
2021/11/12 04:40:42;;;;;;;19.17;11.98;;;;;;;2.99;100.00;99842.41;5094161;28;20218;-78
2021/11/12 05:10:56;;;;;;;17.30;11.63;;;;;;;3.40;93.94;99843.19;5093521;28;20187;-78
2021/11/12 05:43:44;;;;;;;16.52;12.15;;;;;;;3.40;92.25;99843.19;5092855;28;20511;-77
2021/11/12 05:46:38;;;;;;;16.77;11.40;;;;;;;3.22;92.82;99835.66;5092930;28;20188;-76
2021/11/12 05:57:21;;;;;;;16.45;11.35;;;;;;;3.25;91.58;99824.94;5113680;28;20671;-79
2021/11/12 05:59:48;;;;;;;20.15;12.02;;;;;;;3.30;91.84;99831.00;5114227;28;20297;-78
2021/11/12 06:02:16;;;;;;;16.98;12.15;;;;;;;3.28;91.83;99822.22;5113281;28;20251;-79
2021/11/12 06:04:46;;;;;;;18.15;11.75;;;;;;;3.19;92.04;99815.31;5113252;28;20283;-79
2021/11/12 06:07:13;;;;;;;21.42;13.32;;;;;;;3.37;92.01;99823.75;5112538;28;20230;-79
2021/11/12 06:09:39;;;;;;;21.88;12.18;;;;;;;3.27;92.86;99820.44;5112919;28;20288;-79
2021/11/12 06:12:11;;;;;;;29.90;18.98;;;;;;;3.35;92.19;99821.13;5112721;28;20314;-78
2021/11/12 06:14:39;;;;;;;18.60;12.07;;;;;;;3.48;92.05;99813.69;5112712;28;20629;-77
2021/11/12 06:17:06;;;;;;;20.20;12.90;;;;;;;3.48;91.60;99811.94;5113858;28;20271;-80
2021/11/12 06:19:33;;;;;;;26.48;17.00;;;;;;;3.58;91.81;99817.88;5111475;28;20670;-78
2021/11/12 06:21:59;;;;;;;18.95;11.60;;;;;;;3.59;90.17;99824.06;5111688;28;20278;-79
2021/11/12 06:24:26;;;;;;;20.58;12.90;;;;;;;3.41;90.95;99818.31;5112627;28;20724;-79
2021/11/12 06:26:54;;;;;;;19.70;12.98;;;;;;;3.40;91.85;99821.88;5111849;28;20202;-79
2021/11/12 06:29:21;;;;;;;21.95;12.75;;;;;;;3.51;91.50;99818.97;5112515;28;20208;-80
2021/11/12 06:31:49;;;;;;;20.02;12.27;;;;;;;3.47;91.86;99810.16;5111523;28;20233;-79
2021/11/12 06:34:16;;;;;;;17.30;11.80;;;;;;;3.57;91.76;99809.91;5112327;28;20999;-80
2021/11/12 06:36:43;;;;;;;20.10;12.60;;;;;;;3.60;90.82;99815.19;5120204;28;20212;-81
2021/11/12 06:39:10;;;;;;;19.05;11.63;;;;;;;3.55;90.43;99812.66;5112586;28;20195;-79
2021/11/12 06:41:52;;;;;;;19.60;12.43;;;;;;;3.42;91.11;99814.75;5112191;28;20194;-79
2021/11/12 06:50:03;;;;;;;20.40;12.25;;;;;;;3.33;92.14;99829.16;5116812;28;20187;-73
2021/11/12 06:52:33;;;;;;;17.90;12.32;;;;;;;3.48;92.20;99835.00;5112026;28;20184;-75
2021/11/12 06:55:02;;;;;;;19.90;12.13;;;;;;;3.58;90.83;99840.97;5113085;28;20182;-74
2021/11/12 06:57:33;;;;;;;22.77;13.50;;;;;;;3.59;90.71;99840.06;5112629;28;20204;-73
2021/11/12 06:59:59;;;;;;;21.90;15.57;;;;;;;3.35;92.42;99834.44;5112691;28;20190;-75
2021/11/12 07:02:27;;;;;;;22.50;12.63;;;;;;;3.21;91.80;99836.56;5112785;28;20641;-75
2021/11/12 07:04:54;;;;;;;21.17;12.98;;;;;;;3.10;93.55;99840.38;5112097;28;20307;-76
2021/11/12 07:07:21;;;;;;;23.50;13.75;;;;;;;3.33;94.36;99838.94;5112517;28;20302;-74
2021/11/12 07:09:48;;;;;;;27.50;13.40;;;;;;;3.15;93.18;99842.91;5113083;28;20294;-74
2021/11/12 07:12:15;;;;;;;19.15;13.73;;;;;;;3.03;94.45;99838.75;5112797;28;20200;-75
2021/11/12 07:14:42;;;;;;;21.52;12.38;;;;;;;3.11;94.28;99839.44;5113139;28;20633;-74
2021/11/12 07:17:08;;;;;;;19.88;13.30;;;;;;;3.34;93.00;99838.00;5112703;28;20293;-75
2021/11/12 07:19:37;;;;;;;24.45;13.90;;;;;;;3.36;92.15;99840.63;5112458;28;20184;-75
2021/11/12 07:22:04;;;;;;;18.58;12.70;;;;;;;3.43;91.18;99837.78;5112591;28;20665;-75
2021/11/12 07:24:31;;;;;;;24.27;13.60;;;;;;;3.48;90.42;99838.56;5112822;28;20275;-74
2021/11/12 07:26:59;;;;;;;19.85;12.10;;;;;;;3.47;89.28;99844.78;5112237;28;20211;-75
2021/11/12 07:29:28;;;;;;;17.52;11.98;;;;;;;3.27;90.10;99837.28;5115013;28;20203;-74
2021/11/12 07:31:55;;;;;;;20.10;11.70;;;;;;;2.98;91.59;99827.34;5116606;28;20589;-73
2021/11/12 07:34:24;;;;;;;19.10;12.20;;;;;;;2.64;93.44;99836.06;5117200;28;20308;-74
2021/11/12 07:36:54;;;;;;;18.85;12.32;;;;;;;2.68;95.08;99839.56;5116071;28;20203;-73
2021/11/12 07:39:25;;;;;;;21.60;13.77;;;;;;;2.92;93.77;99844.31;5115690;28;20201;-75
2021/11/12 07:42:09;;;;;;;18.88;11.60;;;;;;;3.19;91.90;99833.94;5116719;28;20617;-74
2021/11/12 07:44:52;;;;;;;19.65;11.60;;;;;;;3.30;90.28;99834.56;5116774;28;20188;-74
2021/11/12 07:47:22;;;;;;;18.95;12.52;;;;;;;3.38;89.18;99834.34;5116690;28;20184;-74
2021/11/12 07:49:51;;;;;;;18.75;12.70;;;;;;;3.40;88.59;99832.53;5097472;28;20226;-75
2021/11/12 07:52:21;;;;;;;17.25;11.68;;;;;;;3.40;88.71;99832.53;5098280;28;20212;-74
2021/11/12 07:54:49;;;;;;;19.90;12.98;;;;;;;3.49;87.95;99816.31;5095596;28;20307;-74
2021/11/12 07:57:17;;;;;;;17.55;12.60;;;;;;;3.62;87.16;99813.34;5095659;28;20197;-74
2021/11/12 07:59:44;;;;;;;19.52;12.68;;;;;;;3.50;87.93;99814.53;5095858;28;20207;-73
2021/11/12 08:02:14;;;;;;;18.92;11.32;;;;;;;3.58;86.60;99809.03;5095647;28;20195;-75
2021/11/12 08:04:41;;;;;;;19.63;11.68;;;;;;;3.56;85.98;99801.06;5096025;28;20188;-72
2021/11/12 08:07:09;;;;;;;15.65;10.52;;;;;;;3.67;85.62;99801.66;5095231;28;20589;-74
2021/11/12 08:09:39;;;;;;;18.45;11.02;;;;;;;3.59;85.41;99808.09;5096352;28;20303;-73
2021/11/12 08:12:09;;;;;;;14.82;10.50;;;;;;;3.62;85.37;99810.66;5097793;28;20168;-75
2021/11/12 08:14:39;;;;;;;21.17;13.82;;;;;;;3.64;85.55;99814.16;5110107;27;20656;-74
2021/11/12 08:17:15;;;;;;;22.10;12.55;;;;;;;3.63;85.79;99815.97;5115043;28;20180;-74
2021/11/12 08:19:45;;;;;;;18.38;11.27;;;;;;;3.68;85.64;99816.72;5114869;28;20180;-73
2021/11/12 08:22:14;;;;;;;16.88;10.82;;;;;;;3.41;85.48;99801.47;5117004;28;20717;-77
2021/11/12 08:24:49;;;;;;;18.50;10.95;;;;;;;3.46;86.40;99805.78;5114634;28;20236;-75
2021/11/12 08:27:49;;;;;;;18.27;11.20;;;;;;;3.46;86.76;99799.53;5114869;28;20195;-75
2021/11/12 08:30:32;;;;;;;19.23;10.70;;;;;;;3.49;87.05;99799.50;5114514;28;20184;-77
2021/11/12 08:33:10;;;;;;;17.33;10.45;;;;;;;3.68;85.34;99802.53;5117737;28;20198;-76
2021/11/12 08:35:54;;;;;;;18.35;10.52;;;;;;;3.57;84.89;99796.59;5114933;28;20275;-75
2021/11/12 08:38:28;;;;;;;21.20;11.95;;;;;;;3.31;86.02;99784.88;5114856;28;20186;-75
2021/11/12 08:41:07;;;;;;;17.00;10.95;;;;;;;2.98;88.72;99786.56;5115064;28;20644;-74
2021/11/12 08:43:36;;;;;;;17.27;11.25;;;;;;;3.01;89.33;99792.69;5115232;28;20501;-76
2021/11/12 08:46:10;;;;;;;16.02;10.88;;;;;;;3.26;89.49;99803.59;5115217;28;20550;-75
2021/11/12 08:48:40;;;;;;;16.20;11.25;;;;;;;3.40;88.86;99794.41;5114652;28;20666;-76
2021/11/12 08:51:12;;;;;;;16.95;11.57;;;;;;;3.50;87.75;99791.44;5114606;28;20192;-75
2021/11/12 08:53:40;;;;;;;20.98;11.45;;;;;;;3.61;85.86;99788.50;5114774;28;20307;-75
2021/11/12 08:56:13;;;;;;;18.85;12.75;;;;;;;3.37;86.91;99792.69;5114325;28;20180;-73
2021/11/12 08:58:43;;;;;;;17.88;11.50;;;;;;;3.36;87.53;99793.59;5114703;28;20203;-76
2021/11/12 09:01:10;;;;;;;18.40;11.55;;;;;;;3.30;88.61;99794.63;5114677;28;20209;-74
2021/11/12 09:03:37;;;;;;;16.73;11.20;;;;;;;3.47;87.21;99793.31;5114553;28;20202;-75
2021/11/12 09:06:05;;;;;;;19.40;11.23;;;;;;;3.17;88.11;99798.53;5114013;28;20242;-74
2021/11/12 09:08:32;;;;;;;22.17;12.38;;;;;;;2.89;90.48;99806.28;5114228;28;20656;-74
2021/11/12 09:10:59;;;;;;;21.67;11.65;;;;;;;3.13;90.56;99802.16;5114336;28;20199;-74
2021/11/12 09:13:30;;;;;;;25.77;14.02;;;;;;;3.16;89.85;99798.53;5114226;28;20211;-75
2021/11/12 09:16:03;;;;;;;18.90;10.85;;;;;;;3.13;90.50;99803.03;5114543;28;20227;-76
2021/11/12 09:18:30;;;;;;;18.25;12.55;;;;;;;3.26;88.83;99803.59;5114642;28;20180;-75
2021/11/12 09:20:56;;;;;;;19.92;13.02;;;;;;;3.45;88.71;99803.13;5114540;28;20188;-75
2021/11/12 09:23:23;;;;;;;16.25;10.80;;;;;;;3.37;87.69;99799.78;5114231;28;20186;-75
2021/11/12 09:25:50;;;;;;;25.33;14.50;;;;;;;3.66;87.86;99791.91;5114352;28;20286;-74
2021/11/12 09:28:17;;;;;;;19.15;12.40;;;;;;;3.98;85.59;99798.16;5114081;28;20214;-74
2021/11/12 09:30:45;;;;;;;19.92;13.68;;;;;;;4.02;84.13;99794.47;5113754;28;20206;-74
2021/11/12 09:33:12;;;;;;;20.67;12.52;;;;;;;4.12;82.82;99792.44;5114224;28;20187;-74
2021/11/12 09:35:39;;;;;;;19.45;11.82;;;;;;;4.22;82.26;99791.25;5114262;28;20236;-75
2021/11/12 09:38:06;;;;;;;17.70;13.60;;;;;;;4.39;81.69;99801.44;5114219;28;20271;-76
2021/11/12 09:40:33;;;;;;;18.05;12.07;;;;;;;4.15;81.44;99795.88;5113521;28;20291;-75
2021/11/12 09:43:00;;;;;;;16.73;11.68;;;;;;;4.13;81.94;99796.84;5113464;28;20194;-76
2021/11/12 09:45:27;;;;;;;18.48;12.60;;;;;;;4.24;81.79;99794.75;5113543;28;20200;-75
2021/11/12 09:47:57;;;;;;;18.02;11.80;;;;;;;4.24;81.83;99786.75;5114364;28;20615;-75
2021/11/12 09:50:26;;;;;;;15.40;12.05;;;;;;;4.33;81.17;99786.47;5113060;28;20204;-74
2021/11/12 09:52:54;;;;;;;16.63;11.77;;;;;;;4.35;80.60;99787.31;5113805;28;20233;-73
2021/11/12 09:55:21;;;;;;;16.38;10.82;;;;;;;4.39;79.88;99786.31;5113618;28;20239;-74
2021/11/12 09:57:52;;;;;;;16.15;9.98;;;;;;;4.33;80.44;99782.94;5113952;28;20190;-75
2021/11/12 10:00:21;;;;;;;16.50;10.85;;;;;;;4.30;81.10;99783.03;5113938;28;20241;-75
2021/11/12 10:02:49;;;;;;;19.90;11.70;;;;;;;4.29;80.77;99782.16;5113783;28;20204;-74
2021/11/12 10:05:32;;;;;;;17.48;11.57;;;;;;;4.22;80.98;99774.38;5114024;28;20188;-75
2021/11/12 10:07:59;;;;;;;21.73;13.35;;;;;;;4.14;81.68;99770.16;5113376;28;20184;-74
2021/11/12 10:10:26;;;;;;;15.85;11.13;;;;;;;3.99;82.65;99759.94;5112766;28;20713;-75
2021/11/12 10:12:54;;;;;;;20.05;15.15;;;;;;;4.11;82.50;99759.56;5114127;28;20272;-74
2021/11/12 10:15:28;;;;;;;16.30;11.45;;;;;;;4.08;82.65;99750.81;5112727;28;20614;-73
2021/11/12 10:18:06;;;;;;;15.95;11.07;;;;;;;4.20;82.42;99747.78;5113197;28;20238;-73
2021/11/12 10:20:34;;;;;;;18.58;11.00;;;;;;;4.41;81.70;99745.38;5112948;28;20179;-74
2021/11/12 10:23:14;;;;;;;15.60;11.55;;;;;;;4.52;80.36;99748.59;5112989;28;20547;-74
2021/11/12 10:25:57;;;;;;;15.10;11.05;;;;;;;4.49;80.99;99740.69;5112741;28;20214;-74
2021/11/12 10:28:45;;;;;;;15.73;11.43;;;;;;;4.63;80.76;99742.91;5112499;28;20191;-73
2021/11/12 10:31:17;;;;;;;15.70;11.18;;;;;;;4.63;80.50;99746.47;5105441;28;20214;-73
2021/11/12 10:33:44;;;;;;;15.32;11.05;;;;;;;4.58;80.58;99748.41;5112223;28;20188;-74
2021/11/12 10:36:12;;;;;;;15.75;11.70;;;;;;;4.51;81.81;99746.84;5112662;28;20650;-73
2021/11/12 10:38:41;;;;;;;18.08;10.85;;;;;;;4.61;80.79;99745.63;5112177;28;20200;-73
2021/11/12 10:41:21;;;;;;;19.15;13.50;;;;;;;4.35;81.96;99738.44;5112536;28;20188;-73
2021/11/12 10:43:49;;;;;;;18.25;11.68;;;;;;;4.40;82.08;99731.19;5116096;28;20188;-75
2021/11/12 10:46:15;;;;;;;18.13;11.77;;;;;;;4.49;82.58;99730.88;5113039;28;20188;-75
2021/11/12 10:48:42;;;;;;;15.30;11.00;;;;;;;4.45;81.55;99723.91;5113255;28;20210;-74
2021/11/12 10:51:18;;;;;;;19.77;13.82;;;;;;;4.62;82.12;99725.19;5113389;28;20311;-74
2021/11/12 10:53:52;;;;;;;20.02;13.38;;;;;;;4.92;80.76;99721.50;5112949;28;20184;-74
2021/11/12 10:56:19;;;;;;;17.35;12.00;;;;;;;5.06;79.37;99710.38;5112995;28;20230;-75
2021/11/12 10:59:04;;;;;;;17.05;12.73;;;;;;;5.23;77.88;99708.00;5113025;28;20291;-74
2021/11/12 11:01:35;;;;;;;17.33;11.45;;;;;;;5.43;76.63;99701.13;5111128;28;20636;-74
2021/11/12 11:04:19;;;;;;;13.88;10.35;;;;;;;5.37;76.84;99690.63;5112963;28;20613;-73
2021/11/12 11:06:48;;;;;;;21.45;12.75;;;;;;;5.52;75.90;99686.56;5112602;28;20239;-75
2021/11/12 11:09:15;;;;;;;17.27;11.70;;;;;;;5.26;77.23;99693.69;5112566;28;20204;-74
2021/11/12 11:11:42;;;;;;;18.98;13.45;;;;;;;5.44;76.88;99684.16;5113183;28;20196;-74
2021/11/12 11:14:27;;;;;;;19.25;11.85;;;;;;;5.67;75.54;99677.09;5113103;28;20211;-74
2021/11/12 11:16:55;;;;;;;15.68;12.07;;;;;;;5.72;74.81;99667.09;5113353;28;20191;-73
2021/11/12 11:20:07;;;;;;;21.27;14.38;;;;;;;5.85;73.90;99661.25;5115693;28;20180;-74
2021/11/12 11:22:46;;;;;;;15.65;11.95;;;;;;;6.09;72.64;99655.94;5113184;28;20196;-75
2021/11/12 11:25:12;;;;;;;13.63;10.77;;;;;;;6.10;72.36;99649.66;5113179;28;20275;-73
2021/11/12 11:27:39;;;;;;;16.90;12.45;;;;;;;5.64;74.69;99649.56;5115224;28;20271;-75
2021/11/12 11:30:07;;;;;;;19.30;13.10;;;;;;;4.53;80.12;99651.69;5110218;28;20219;-74
2021/11/12 11:32:35;;;;;;;21.17;12.50;;;;;;;4.17;83.19;99649.25;5112818;28;20227;-74
2021/11/12 11:35:02;;;;;;;18.88;13.07;;;;;;;4.64;81.97;99657.53;5113052;28;20606;-76
2021/11/12 11:37:29;;;;;;;33.55;24.63;;;;;;;4.83;80.49;99640.91;5118941;28;20236;-74
2021/11/12 11:39:58;;;;;;;22.58;15.85;;;;;;;5.04;80.19;99645.50;5112695;28;20579;-75
2021/11/12 11:42:26;;;;;;;20.75;14.77;;;;;;;4.97;80.56;99652.84;5113925;28;20195;-74
2021/11/12 11:44:53;;;;;;;19.08;13.48;;;;;;;5.22;79.66;99650.22;5131394;28;20259;-74
2021/11/12 11:47:22;;;;;;;19.20;12.50;;;;;;;5.27;78.82;99642.03;5133070;28;20266;-74
2021/11/12 11:49:50;;;;;;;19.92;13.95;;;;;;;5.05;79.81;99636.59;5133998;28;20219;-78
2021/11/12 11:52:25;;;;;;;20.30;14.65;;;;;;;4.89;81.03;99622.91;5131553;28;20183;-78
2021/11/12 11:54:52;;;;;;;21.50;14.32;;;;;;;4.44;83.35;99625.31;5131773;28;20187;-80
2021/11/12 11:57:22;;;;;;;20.38;14.60;;;;;;;4.93;83.28;99626.31;5131355;28;20235;-80
2021/11/12 11:59:49;;;;;;;19.58;13.95;;;;;;;5.18;80.39;99623.69;5117113;28;20188;-79
2021/11/12 12:02:18;;;;;;;18.15;12.68;;;;;;;4.99;80.21;99624.31;5110556;28;20287;-79
2021/11/12 12:04:49;;;;;;;22.08;14.52;;;;;;;5.28;79.59;99629.56;5110992;28;20287;-79
2021/11/12 12:07:37;;;;;;;20.42;13.80;;;;;;;5.11;79.78;99630.13;5110553;28;20235;-78
2021/11/12 12:10:31;;;;;;;19.13;13.77;;;;;;;4.69;82.90;99620.03;5125103;28;20306;-79
2021/11/12 12:13:03;;;;;;;23.80;15.48;;;;;;;5.16;80.62;99625.53;5131126;27;20635;-78
2021/11/12 12:15:44;;;;;;;23.23;15.43;;;;;;;4.96;80.37;99626.22;5130945;27;20195;-78
2021/11/12 12:18:20;;;;;;;20.85;14.18;;;;;;;5.06;80.66;99632.09;5134628;27;20192;-80
2021/11/12 12:21:21;;;;;;;23.05;14.32;;;;;;;4.93;80.64;99623.66;5134960;27;20197;-79
2021/11/12 12:35:34;;;;;;;22.20;15.30;;;;;;;5.43;78.53;99592.47;5016549;28;20266;-75
2021/11/12 13:23:26;;;;;;;26.83;19.27;;;;;;;5.87;76.33;99586.38;5100180;28;20322;-74
2021/11/12 13:25:55;;;;;;;24.70;18.70;;;;;;;6.01;75.98;99588.53;5109943;28;20192;-75
2021/11/12 13:28:26;;;;;;;22.35;17.75;;;;;;;6.06;76.06;99578.56;5109201;28;20591;-74
2021/11/12 13:30:56;;;;;;;29.20;21.23;;;;;;;6.20;75.48;99578.84;5109851;28;20569;-74
2021/11/12 13:33:37;;;;;;;35.20;19.33;;;;;;;6.27;75.40;99571.44;5108843;28;20187;-75
2021/11/12 13:36:08;;;;;;;28.13;20.08;;;;;;;6.30;74.98;99575.81;5109036;28;20293;-75
2021/11/12 13:38:37;;;;;;;27.58;19.05;;;;;;;6.19;74.85;99566.41;5109220;28;20207;-75
2021/11/12 13:41:07;;;;;;;31.13;21.48;;;;;;;5.66;77.87;99573.84;5108127;28;20195;-74
2021/11/12 13:43:37;;;;;;;26.25;19.27;;;;;;;6.20;75.82;99568.16;5108571;28;20302;-74
2021/11/12 13:46:04;;;;;;;25.95;17.70;;;;;;;6.03;75.68;99565.28;5108163;28;20238;-74
2021/11/12 13:48:42;;;;;;;26.38;19.23;;;;;;;6.00;75.83;99568.97;5108096;28;20192;-76
2021/11/12 13:51:09;;;;;;;29.73;19.95;;;;;;;5.93;76.25;99567.44;5107968;28;20196;-74
2021/11/12 13:53:36;;;;;;;27.08;19.20;;;;;;;6.01;76.66;99568.00;5102731;28;20594;-74
2021/11/12 13:56:10;;;;;;;26.15;18.77;;;;;;;6.20;75.66;99564.63;5094786;28;20193;-72
2021/11/12 13:58:37;;;;;;;25.65;18.17;;;;;;;6.21;75.41;99563.66;5078402;28;20509;-73
2021/11/12 14:01:15;;;;;;;26.73;18.70;;;;;;;6.17;76.07;99556.72;5093594;28;20189;-72
2021/11/12 14:03:43;;;;;;;34.33;21.75;;;;;;;6.49;75.31;99552.72;5094261;28;20422;-75
2021/11/12 14:06:11;;;;;;;24.58;18.83;;;;;;;6.51;74.55;99545.47;5094036;28;20554;-73
2021/11/12 14:08:40;;;;;;;22.48;17.67;;;;;;;6.72;73.49;99541.03;5094839;28;20191;-75
2021/11/12 14:11:17;;;;;;;28.70;20.75;;;;;;;6.78;73.40;99538.06;5094247;28;20200;-74
2021/11/12 14:13:45;;;;;;;23.63;17.63;;;;;;;6.87;73.41;99542.16;5094495;28;20185;-75
2021/11/12 14:16:14;;;;;;;29.15;19.63;;;;;;;6.58;74.53;99541.63;5094039;28;20184;-73
2021/11/12 14:21:45;;;;;;;28.60;18.45;;;;;;;6.45;76.11;99527.03;5096116;28;20207;-76
2021/11/12 14:24:35;;;;;;;28.00;20.23;;;;;;;6.54;76.10;99523.97;5092896;28;20188;-74
2021/11/12 14:27:08;;;;;;;30.10;20.95;;;;;;;6.77;75.48;99525.63;5098114;28;20181;-75
2021/11/12 14:29:43;;;;;;;30.70;18.77;;;;;;;6.73;75.04;99517.81;5094183;28;20181;-75
2021/11/12 14:32:46;;;;;;;31.10;19.95;;;;;;;6.55;75.76;99517.66;5098408;28;20176;-74
2021/11/12 14:35:25;;;;;;;23.13;17.02;;;;;;;6.32;77.52;99517.78;5087167;28;20641;-74
2021/11/12 14:38:06;;;;;;;25.02;17.02;;;;;;;6.42;77.83;99516.44;5094799;28;20216;-75
2021/11/12 14:41:19;;;;;;;25.45;16.05;;;;;;;6.31;78.46;99510.69;5094958;28;20204;-75
2021/11/12 14:46:56;;;;;;;28.02;16.95;;;;;;;6.25;78.88;99504.66;5067718;28;20203;-75
2021/11/12 14:49:31;;;;;;;29.60;17.23;;;;;;;6.13;78.87;99507.84;5094137;28;20200;-74
2021/11/12 14:52:03;;;;;;;29.08;18.80;;;;;;;6.08;79.64;99509.81;5093871;28;20272;-75
2021/11/12 14:54:34;;;;;;;21.58;15.60;;;;;;;5.98;79.92;99524.53;5094676;28;20265;-76
2021/11/12 14:57:04;;;;;;;25.05;16.80;;;;;;;5.67;80.87;99527.50;5094626;28;20637;-75
2021/11/12 14:59:33;;;;;;;20.20;15.40;;;;;;;5.60;81.88;99532.22;5094382;28;20189;-74
2021/11/12 15:02:02;;;;;;;26.63;18.45;;;;;;;5.51;83.12;99536.09;5094392;28;20659;-75
2021/11/12 15:04:28;;;;;;;25.92;16.70;;;;;;;5.48;83.60;99544.25;5094161;28;20616;-76
2021/11/12 15:06:56;;;;;;;26.65;17.02;;;;;;;5.61;83.37;99537.50;5094035;28;20191;-75
2021/11/12 15:09:28;;;;;;;26.42;16.88;;;;;;;5.62;83.16;99538.38;5093974;28;20211;-75
2021/11/12 15:11:54;;;;;;;26.20;17.58;;;;;;;5.76;82.44;99543.16;5094715;28;20185;-74
2021/11/12 15:14:25;;;;;;;38.17;25.48;;;;;;;5.88;81.00;99542.69;5093334;28;20279;-76